Kuujjuaq, Canada
Current Conditions -  °F | °C
As of 9:00 AM on Friday 19 Dec 2014 (Local Time) from CYVP Reporting Station
Broken Clouds Broken Clouds  
Wind Chill: -3°   Ceiling: 2300
Heat Index:   Visibility: 15mi
Dew Point:   Wind: 6mph
Humidity: 79%   Direction: 330°NNW
Pressure: 30.21"   Gusts: NA
Location:  58.22°N, 68.37°W
Report Text: CYVP 191400Z 33005KT 15SM BKN023 M14/M17 A3021 RMK SC7 SLP235
Loading
Personal Weather Stations






























Interactive Weather Map New forecast layout! Learn more

10-Day Weather Forecast

Advertisements
Track Severe Weather on mobile